sensor_id;sensor_type;location;lat;lon;timestamp;pressure;altitude;pressure_sealevel;temperature;humidity
6132;BME280;3097;42.692;23.278;2023-02-18T00:01:28;95781.28;;;5.05;59.08
6132;BME280;3097;42.692;23.278;2023-02-18T00:03:56;95766.63;;;4.91;59.58
6132;BME280;3097;42.692;23.278;2023-02-18T00:06:28;95741.75;;;4.85;59.45
6132;BME280;3097;42.692;23.278;2023-02-18T00:08:54;95747.03;;;4.76;59.76
6132;BME280;3097;42.692;23.278;2023-02-18T00:11:21;95754.16;;;4.96;59.40
6132;BME280;3097;42.692;23.278;2023-02-18T00:13:54;95754.81;;;4.90;59.63
6132;BME280;3097;42.692;23.278;2023-02-18T00:16:21;95758.31;;;4.97;59.45
6132;BME280;3097;42.692;23.278;2023-02-18T00:18:47;95744.31;;;4.77;60.09
6132;BME280;3097;42.692;23.278;2023-02-18T00:21:13;95753.28;;;4.73;59.97
6132;BME280;3097;42.692;23.278;2023-02-18T00:23:38;95734.44;;;4.74;60.41
6132;BME280;3097;42.692;23.278;2023-02-18T00:26:10;95729.38;;;4.66;60.70
6132;BME280;3097;42.692;23.278;2023-02-18T00:28:36;95736.03;;;4.67;60.81
6132;BME280;3097;42.692;23.278;2023-02-18T00:31:06;95670.72;;;4.34;60.87
6132;BME280;3097;42.692;23.278;2023-02-18T00:33:32;95723.94;;;4.61;60.94
6132;BME280;3097;42.692;23.278;2023-02-18T00:36:05;95714.72;;;4.44;61.54
6132;BME280;3097;42.692;23.278;2023-02-18T00:38:32;95734.53;;;4.34;61.84
6132;BME280;3097;42.692;23.278;2023-02-18T00:40:58;95686.69;;;4.19;61.79
6132;BME280;3097;42.692;23.278;2023-02-18T00:43:24;95724.78;;;4.29;62.43
6132;BME280;3097;42.692;23.278;2023-02-18T00:45:49;95675.53;;;4.20;61.75
6132;BME280;3097;42.692;23.278;2023-02-18T00:48:15;95722.22;;;4.37;61.87
6132;BME280;3097;42.692;23.278;2023-02-18T00:50:40;95706.44;;;4.34;62.11
6132;BME280;3097;42.692;23.278;2023-02-18T00:53:06;95728.94;;;4.38;62.27
6132;BME280;3097;42.692;23.278;2023-02-18T00:55:31;95724.78;;;4.37;62.48
6132;BME280;3097;42.692;23.278;2023-02-18T00:57:57;95709.44;;;4.45;61.66
6132;BME280;3097;42.692;23.278;2023-02-18T01:00:22;95691.72;;;4.44;61.40
6132;BME280;3097;42.692;23.278;2023-02-18T01:02:50;95722.41;;;4.36;61.93
6132;BME280;3097;42.692;23.278;2023-02-18T01:05:19;95677.09;;;4.29;61.84
6132;BME280;3097;42.692;23.278;2023-02-18T01:07:44;95720.94;;;4.49;61.69
6132;BME280;3097;42.692;23.278;2023-02-18T01:10:10;95710.25;;;4.46;61.54
6132;BME280;3097;42.692;23.278;2023-02-18T01:12:35;95699.56;;;4.50;61.17
6132;BME280;3097;42.692;23.278;2023-02-18T01:15:02;95710.59;;;4.43;61.71
6132;BME280;3097;42.692;23.278;2023-02-18T01:17:27;95715.06;;;4.41;61.53
6132;BME280;3097;42.692;23.278;2023-02-18T01:19:52;95708.34;;;4.40;61.32
6132;BME280;3097;42.692;23.278;2023-02-18T01:22:18;95709.78;;;4.42;61.49
6132;BME280;3097;42.692;23.278;2023-02-18T01:24:43;95714.09;;;4.34;61.94
6132;BME280;3097;42.692;23.278;2023-02-18T01:27:09;95699.59;;;4.26;61.95
6132;BME280;3097;42.692;23.278;2023-02-18T01:29:34;95704.53;;;4.36;61.79
6132;BME280;3097;42.692;23.278;2023-02-18T01:32:00;95706.16;;;4.20;62.49
6132;BME280;3097;42.692;23.278;2023-02-18T01:34:25;95705.00;;;4.23;62.46
6132;BME280;3097;42.692;23.278;2023-02-18T01:36:51;95710.25;;;4.29;61.84
6132;BME280;3097;42.692;23.278;2023-02-18T01:39:16;95703.91;;;4.34;61.86
6132;BME280;3097;42.692;23.278;2023-02-18T01:41:41;95708.84;;;4.27;62.26
6132;BME280;3097;42.692;23.278;2023-02-18T01:46:35;95711.25;;;4.20;62.35
6132;BME280;3097;42.692;23.278;2023-02-18T01:49:00;95670.13;;;3.91;62.41
6132;BME280;3097;42.692;23.278;2023-02-18T01:51:33;95715.88;;;4.09;62.71
6132;BME280;3097;42.692;23.278;2023-02-18T01:54:09;95719.22;;;3.93;63.24
6132;BME280;3097;42.692;23.278;2023-02-18T01:56:40;95734.53;;;3.93;63.59
6132;BME280;3097;42.692;23.278;2023-02-18T01:59:10;95725.63;;;3.97;63.31
6132;BME280;3097;42.692;23.278;2023-02-18T02:01:38;95724.97;;;4.03;63.19
6132;BME280;3097;42.692;23.278;2023-02-18T02:04:03;95725.59;;;3.89;63.73
6132;BME280;3097;42.692;23.278;2023-02-18T02:06:29;95716.81;;;3.92;63.30
6132;BME280;3097;42.692;23.278;2023-02-18T02:08:58;95719.53;;;3.74;64.04
6132;BME280;3097;42.692;23.278;2023-02-18T02:14:20;95724.81;;;3.80;64.25
6132;BME280;3097;42.692;23.278;2023-02-18T02:31:19;95725.56;;;3.65;64.73
6132;BME280;3097;42.692;23.278;2023-02-18T02:36:58;95702.00;;;3.63;65.07
6132;BME280;3097;42.692;23.278;2023-02-18T02:39:37;95705.03;;;3.58;65.30
6132;BME280;3097;42.692;23.278;2023-02-18T02:47:13;95688.28;;;3.64;65.04
6132;BME280;3097;42.692;23.278;2023-02-18T02:52:26;95695.31;;;3.70;65.47
6132;BME280;3097;42.692;23.278;2023-02-18T02:54:54;95691.50;;;3.74;64.95
6132;BME280;3097;42.692;23.278;2023-02-18T02:59:52;95709.97;;;3.68;65.30
6132;BME280;3097;42.692;23.278;2023-02-18T03:05:21;95710.28;;;3.65;65.68
6132;BME280;3097;42.692;23.278;2023-02-18T03:11:04;95690.81;;;3.56;65.21
6132;BME280;3097;42.692;23.278;2023-02-18T03:19:23;95702.47;;;3.50;65.20
6132;BME280;3097;42.692;23.278;2023-02-18T03:21:56;95709.28;;;3.41;65.90
6132;BME280;3097;42.692;23.278;2023-02-18T03:24:27;95687.75;;;3.28;65.63
6132;BME280;3097;42.692;23.278;2023-02-18T03:26:58;95730.97;;;3.54;65.14
6132;BME280;3097;42.692;23.278;2023-02-18T03:29:25;95753.44;;;3.50;65.38
6132;BME280;3097;42.692;23.278;2023-02-18T03:31:55;95746.91;;;3.56;65.34
6132;BME280;3097;42.692;23.278;2023-02-18T03:34:28;95739.38;;;3.46;66.03
6132;BME280;3097;42.692;23.278;2023-02-18T03:36:56;95752.00;;;3.56;65.61
6132;BME280;3097;42.692;23.278;2023-02-18T03:39:22;95750.09;;;3.58;65.21
6132;BME280;3097;42.692;23.278;2023-02-18T03:41:50;95748.19;;;3.60;65.38
6132;BME280;3097;42.692;23.278;2023-02-18T03:44:15;95747.38;;;3.43;66.01
6132;BME280;3097;42.692;23.278;2023-02-18T03:46:43;95705.44;;;3.29;65.42
6132;BME280;3097;42.692;23.278;2023-02-18T03:49:11;95756.66;;;3.60;65.68
6132;BME280;3097;42.692;23.278;2023-02-18T03:51:37;95766.31;;;3.48;66.46
6132;BME280;3097;42.692;23.278;2023-02-18T03:54:03;95747.50;;;3.41;66.30
6132;BME280;3097;42.692;23.278;2023-02-18T03:56:28;95757.56;;;3.43;66.44
6132;BME280;3097;42.692;23.278;2023-02-18T03:58:54;95745.94;;;3.48;65.88
6132;BME280;3097;42.692;23.278;2023-02-18T04:01:19;95749.25;;;3.41;65.66
6132;BME280;3097;42.692;23.278;2023-02-18T04:03:45;95750.72;;;3.52;65.44
6132;BME280;3097;42.692;23.278;2023-02-18T04:06:10;95706.34;;;3.12;66.06
6132;BME280;3097;42.692;23.278;2023-02-18T04:08:36;95748.03;;;3.53;65.69
6132;BME280;3097;42.692;23.278;2023-02-18T04:11:02;95748.19;;;3.52;65.61
6132;BME280;3097;42.692;23.278;2023-02-18T04:13:27;95720.91;;;3.36;65.87
6132;BME280;3097;42.692;23.278;2023-02-18T04:15:53;95735.88;;;3.47;66.04
6132;BME280;3097;42.692;23.278;2023-02-18T04:18:18;95722.81;;;3.34;66.10
6132;BME280;3097;42.692;23.278;2023-02-18T04:20:44;95735.06;;;3.38;66.35
6132;BME280;3097;42.692;23.278;2023-02-18T04:23:11;95720.09;;;3.35;66.41
6132;BME280;3097;42.692;23.278;2023-02-18T04:25:37;95709.41;;;3.32;66.74
6132;BME280;3097;42.692;23.278;2023-02-18T04:28:03;95644.53;;;2.94;66.09
6132;BME280;3097;42.692;23.278;2023-02-18T04:30:28;95717.22;;;3.38;66.53
6132;BME280;3097;42.692;23.278;2023-02-18T04:32:54;95706.38;;;3.20;67.44
6132;BME280;3097;42.692;23.278;2023-02-18T04:35:19;95714.03;;;3.28;67.47
6132;BME280;3097;42.692;23.278;2023-02-18T04:37:45;95719.78;;;3.30;67.19
6132;BME280;3097;42.692;23.278;2023-02-18T04:40:11;95722.94;;;3.24;67.13
6132;BME280;3097;42.692;23.278;2023-02-18T04:42:36;95679.94;;;3.13;66.47
6132;BME280;3097;42.692;23.278;2023-02-18T04:45:02;95708.44;;;3.25;66.90
6132;BME280;3097;42.692;23.278;2023-02-18T04:47:28;95718.50;;;3.26;67.22
6132;BME280;3097;42.692;23.278;2023-02-18T04:49:53;95730.59;;;3.32;67.19
6132;BME280;3097;42.692;23.278;2023-02-18T04:52:19;95695.03;;;3.06;67.59
6132;BME280;3097;42.692;23.278;2023-02-18T04:54:44;95735.22;;;3.29;67.53
6132;BME280;3097;42.692;23.278;2023-02-18T04:57:10;95743.38;;;3.40;67.28
6132;BME280;3097;42.692;23.278;2023-02-18T04:59:35;95723.88;;;3.15;67.75
6132;BME280;3097;42.692;23.278;2023-02-18T05:02:01;95737.78;;;3.37;67.69
6132;BME280;3097;42.692;23.278;2023-02-18T05:04:27;95751.84;;;3.49;67.01
6132;BME280;3097;42.692;23.278;2023-02-18T05:06:52;95758.53;;;3.50;66.89
6132;BME280;3097;42.692;23.278;2023-02-18T05:09:18;95756.94;;;3.49;67.20
6132;BME280;3097;42.692;23.278;2023-02-18T05:11:44;95758.19;;;3.37;67.95
6132;BME280;3097;42.692;23.278;2023-02-18T05:14:10;95737.00;;;3.36;68.03
6132;BME280;3097;42.692;23.278;2023-02-18T05:16:35;95752.97;;;3.63;67.55
6132;BME280;3097;42.692;23.278;2023-02-18T05:19:01;95740.75;;;3.74;67.10
6132;BME280;3097;42.692;23.278;2023-02-18T05:21:26;95719.34;;;3.51;67.82
6132;BME280;3097;42.692;23.278;2023-02-18T05:23:52;95701.63;;;3.33;67.39
6132;BME280;3097;42.692;23.278;2023-02-18T05:26:17;95713.72;;;3.39;67.46
6132;BME280;3097;42.692;23.278;2023-02-18T05:28:43;95744.06;;;3.67;67.62
6132;BME280;3097;42.692;23.278;2023-02-18T05:31:08;95729.09;;;3.80;67.16
6132;BME280;3097;42.692;23.278;2023-02-18T05:33:34;95723.19;;;3.79;67.33
6132;BME280;3097;42.692;23.278;2023-02-18T05:35:59;95727.50;;;3.87;67.02
6132;BME280;3097;42.692;23.278;2023-02-18T05:38:25;95731.03;;;3.94;66.61
6132;BME280;3097;42.692;23.278;2023-02-18T05:40:51;95724.31;;;3.93;66.55
6132;BME280;3097;42.692;23.278;2023-02-18T05:43:16;95735.31;;;3.94;66.83
6132;BME280;3097;42.692;23.278;2023-02-18T05:45:41;95723.69;;;4.07;66.24
6132;BME280;3097;42.692;23.278;2023-02-18T05:48:07;95696.09;;;3.78;66.70
6132;BME280;3097;42.692;23.278;2023-02-18T05:50:33;95725.28;;;4.08;66.04
6132;BME280;3097;42.692;23.278;2023-02-18T05:52:58;95715.41;;;3.97;66.05
6132;BME280;3097;42.692;23.278;2023-02-18T05:55:24;95748.88;;;4.18;66.34
6132;BME280;3097;42.692;23.278;2023-02-18T05:57:50;95712.53;;;3.76;67.15
6132;BME280;3097;42.692;23.278;2023-02-18T06:00:16;95744.44;;;4.04;66.64
6132;BME280;3097;42.692;23.278;2023-02-18T06:02:42;95754.44;;;4.22;66.61
6132;BME280;3097;42.692;23.278;2023-02-18T06:05:08;95736.13;;;4.26;66.11
6132;BME280;3097;42.692;23.278;2023-02-18T06:07:33;95751.41;;;4.51;66.04
6132;BME280;3097;42.692;23.278;2023-02-18T06:09:59;95726.56;;;4.20;66.82
6132;BME280;3097;42.692;23.278;2023-02-18T06:12:24;95740.56;;;4.49;66.22
6132;BME280;3097;42.692;23.278;2023-02-18T06:14:50;95743.56;;;4.60;66.17
6132;BME280;3097;42.692;23.278;2023-02-18T06:17:16;95722.69;;;4.57;65.34
6132;BME280;3097;42.692;23.278;2023-02-18T06:19:43;95750.34;;;4.92;64.80
6132;BME280;3097;42.692;23.278;2023-02-18T06:22:10;95715.00;;;4.73;64.91
6132;BME280;3097;42.692;23.278;2023-02-18T06:24:36;95746.97;;;5.00;65.38
6132;BME280;3097;42.692;23.278;2023-02-18T06:27:02;95737.69;;;5.07;64.72
6132;BME280;3097;42.692;23.278;2023-02-18T06:29:28;95734.03;;;5.01;65.02
6132;BME280;3097;42.692;23.278;2023-02-18T06:31:57;95735.63;;;5.11;64.38
6132;BME280;3097;42.692;23.278;2023-02-18T06:34:22;95727.44;;;5.15;64.37
6132;BME280;3097;42.692;23.278;2023-02-18T06:36:48;95724.97;;;5.30;63.74
6132;BME280;3097;42.692;23.278;2023-02-18T06:39:13;95714.94;;;5.20;63.79
6132;BME280;3097;42.692;23.278;2023-02-18T06:41:39;95732.88;;;5.43;63.33
6132;BME280;3097;42.692;23.278;2023-02-18T06:44:05;95740.22;;;5.46;63.43
6132;BME280;3097;42.692;23.278;2023-02-18T06:46:31;95725.91;;;5.37;63.66
6132;BME280;3097;42.692;23.278;2023-02-18T06:48:56;95737.91;;;5.59;63.23
6132;BME280;3097;42.692;23.278;2023-02-18T06:51:22;95727.31;;;5.70;63.06
6132;BME280;3097;42.692;23.278;2023-02-18T06:53:47;95735.38;;;5.82;62.97
6132;BME280;3097;42.692;23.278;2023-02-18T06:56:12;95725.03;;;5.75;64.11
6132;BME280;3097;42.692;23.278;2023-02-18T06:58:38;95730.22;;;5.90;63.08
6132;BME280;3097;42.692;23.278;2023-02-18T07:01:04;95737.97;;;6.05;62.88
6132;BME280;3097;42.692;23.278;2023-02-18T07:03:29;95743.66;;;6.15;62.59
6132;BME280;3097;42.692;23.278;2023-02-18T07:05:55;95739.13;;;6.17;62.59
6132;BME280;3097;42.692;23.278;2023-02-18T07:08:20;95731.06;;;6.28;61.12
6132;BME280;3097;42.692;23.278;2023-02-18T07:10:46;95728.06;;;6.39;61.34
6132;BME280;3097;42.692;23.278;2023-02-18T07:13:12;95719.50;;;6.47;60.24
6132;BME280;3097;42.692;23.278;2023-02-18T07:15:38;95712.28;;;6.50;61.30
6132;BME280;3097;42.692;23.278;2023-02-18T07:18:03;95716.28;;;6.68;60.41
6132;BME280;3097;42.692;23.278;2023-02-18T07:20:29;95705.31;;;6.74;59.98
6132;BME280;3097;42.692;23.278;2023-02-18T07:22:54;95715.91;;;7.00;59.34
6132;BME280;3097;42.692;23.278;2023-02-18T07:25:20;95687.91;;;6.98;58.21
6132;BME280;3097;42.692;23.278;2023-02-18T07:27:46;95660.84;;;6.96;56.60
6132;BME280;3097;42.692;23.278;2023-02-18T07:30:11;95627.84;;;6.72;55.57
6132;BME280;3097;42.692;23.278;2023-02-18T07:32:37;95679.03;;;7.16;56.01
6132;BME280;3097;42.692;23.278;2023-02-18T07:35:04;95718.88;;;7.33;54.75
6132;BME280;3097;42.692;23.278;2023-02-18T07:37:30;95698.81;;;7.22;55.39
6132;BME280;3097;42.692;23.278;2023-02-18T07:39:56;95724.75;;;7.84;54.79
6132;BME280;3097;42.692;23.278;2023-02-18T07:42:21;95710.03;;;8.21;53.21
6132;BME280;3097;42.692;23.278;2023-02-18T07:44:47;95729.72;;;8.56;51.63
6132;BME280;3097;42.692;23.278;2023-02-18T07:47:14;95726.13;;;8.50;51.42
6132;BME280;3097;42.692;23.278;2023-02-18T07:49:39;95725.84;;;8.67;51.28
6132;BME280;3097;42.692;23.278;2023-02-18T07:52:05;95733.31;;;8.96;50.94
6132;BME280;3097;42.692;23.278;2023-02-18T07:54:30;95743.09;;;9.07;50.93
6132;BME280;3097;42.692;23.278;2023-02-18T07:56:56;95735.63;;;9.25;50.46
6132;BME280;3097;42.692;23.278;2023-02-18T07:59:21;95715.53;;;9.42;50.24
6132;BME280;3097;42.692;23.278;2023-02-18T08:01:46;95701.31;;;9.59;49.72
6132;BME280;3097;42.692;23.278;2023-02-18T08:04:12;95719.81;;;9.83;49.33
6132;BME280;3097;42.692;23.278;2023-02-18T08:06:41;95730.91;;;9.90;49.34
6132;BME280;3097;42.692;23.278;2023-02-18T08:09:08;95738.44;;;9.85;48.19
6132;BME280;3097;42.692;23.278;2023-02-18T08:11:35;95734.25;;;9.77;48.41
6132;BME280;3097;42.692;23.278;2023-02-18T08:14:01;95719.63;;;9.91;48.96
6132;BME280;3097;42.692;23.278;2023-02-18T08:16:26;95731.19;;;10.28;48.59
6132;BME280;3097;42.692;23.278;2023-02-18T08:18:52;95708.91;;;10.79;46.88
6132;BME280;3097;42.692;23.278;2023-02-18T08:21:20;95702.94;;;11.43;46.16
6132;BME280;3097;42.692;23.278;2023-02-18T08:23:46;95679.44;;;11.58;45.28
6132;BME280;3097;42.692;23.278;2023-02-18T08:26:12;95694.47;;;11.74;44.92
6132;BME280;3097;42.692;23.278;2023-02-18T08:28:38;95693.78;;;11.54;44.39
6132;BME280;3097;42.692;23.278;2023-02-18T08:31:03;95693.31;;;11.25;44.93
6132;BME280;3097;42.692;23.278;2023-02-18T08:33:29;95685.63;;;11.06;45.55
6132;BME280;3097;42.692;23.278;2023-02-18T08:35:54;95575.00;;;10.20;45.67
6132;BME280;3097;42.692;23.278;2023-02-18T08:38:21;95699.78;;;10.83;46.10
6132;BME280;3097;42.692;23.278;2023-02-18T08:40:47;95685.13;;;10.77;46.56
6132;BME280;3097;42.692;23.278;2023-02-18T08:43:14;95683.53;;;10.70;47.27
6132;BME280;3097;42.692;23.278;2023-02-18T08:45:39;95672.25;;;10.64;48.72
6132;BME280;3097;42.692;23.278;2023-02-18T08:48:07;95681.16;;;10.75;47.56
6132;BME280;3097;42.692;23.278;2023-02-18T08:50:33;95699.78;;;10.77;46.98
6132;BME280;3097;42.692;23.278;2023-02-18T08:52:59;95696.22;;;10.78;46.81
6132;BME280;3097;42.692;23.278;2023-02-18T08:55:28;95699.41;;;10.80;46.84
6132;BME280;3097;42.692;23.278;2023-02-18T08:57:54;95697.59;;;10.87;46.78
6132;BME280;3097;42.692;23.278;2023-02-18T09:00:19;95701.13;;;10.99;54.79
6132;BME280;3097;42.692;23.278;2023-02-18T09:02:45;95701.31;;;11.04;47.31
6132;BME280;3097;42.692;23.278;2023-02-18T09:05:12;95690.56;;;11.14;46.46
6132;BME280;3097;42.692;23.278;2023-02-18T09:07:38;95685.63;;;11.12;46.26
6132;BME280;3097;42.692;23.278;2023-02-18T09:10:04;95668.16;;;11.08;46.08
6132;BME280;3097;42.692;23.278;2023-02-18T09:12:30;95697.44;;;11.33;45.98
6132;BME280;3097;42.692;23.278;2023-02-18T09:14:55;95692.06;;;11.41;45.66
6132;BME280;3097;42.692;23.278;2023-02-18T09:17:21;95689.19;;;11.56;45.97
6132;BME280;3097;42.692;23.278;2023-02-18T09:19:46;95702.03;;;11.69;44.51
6132;BME280;3097;42.692;23.278;2023-02-18T09:22:12;95697.06;;;11.74;44.55
6132;BME280;3097;42.692;23.278;2023-02-18T09:24:38;95699.91;;;11.97;44.36
6132;BME280;3097;42.692;23.278;2023-02-18T09:27:04;95660.53;;;12.02;45.11
6132;BME280;3097;42.692;23.278;2023-02-18T09:29:30;95681.66;;;12.42;43.51
6132;BME280;3097;42.692;23.278;2023-02-18T09:31:59;95675.34;;;12.56;43.09
6132;BME280;3097;42.692;23.278;2023-02-18T09:34:26;95667.03;;;12.72;42.49
6132;BME280;3097;42.692;23.278;2023-02-18T09:36:51;95668.34;;;12.82;42.23
6132;BME280;3097;42.692;23.278;2023-02-18T09:39:17;95645.03;;;12.63;41.63
6132;BME280;3097;42.692;23.278;2023-02-18T09:41:49;95648.50;;;12.75;42.83
6132;BME280;3097;42.692;23.278;2023-02-18T09:44:38;95670.72;;;13.01;41.47
6132;BME280;3097;42.692;23.278;2023-02-18T09:47:19;95664.03;;;13.12;41.54
6132;BME280;3097;42.692;23.278;2023-02-18T09:49:53;95659.28;;;13.27;40.68
6132;BME280;3097;42.692;23.278;2023-02-18T09:52:29;95658.53;;;13.38;41.16
6132;BME280;3097;42.692;23.278;2023-02-18T09:54:55;95636.19;;;13.44;40.62
6132;BME280;3097;42.692;23.278;2023-02-18T09:57:53;95651.69;;;13.74;40.04
6132;BME280;3097;42.692;23.278;2023-02-18T10:02:57;95639.16;;;13.59;38.43
6132;BME280;3097;42.692;23.278;2023-02-18T10:05:25;95631.06;;;13.67;38.79
6132;BME280;3097;42.692;23.278;2023-02-18T10:07:55;95643.66;;;14.05;37.93
6132;BME280;3097;42.692;23.278;2023-02-18T10:13:00;95613.44;;;14.22;38.69
6132;BME280;3097;42.692;23.278;2023-02-18T10:15:28;95622.72;;;14.65;36.12
6132;BME280;3097;42.692;23.278;2023-02-18T10:17:58;95628.34;;;14.62;34.90
6132;BME280;3097;42.692;23.278;2023-02-18T10:20:27;95625.78;;;14.50;34.67
6132;BME280;3097;42.692;23.278;2023-02-18T10:22:56;95606.81;;;14.50;35.09
6132;BME280;3097;42.692;23.278;2023-02-18T10:25:23;95618.84;;;14.79;34.80
6132;BME280;3097;42.692;23.278;2023-02-18T10:27:51;95597.59;;;14.94;34.90
6132;BME280;3097;42.692;23.278;2023-02-18T10:30:31;95607.34;;;15.15;34.10
6132;BME280;3097;42.692;23.278;2023-02-18T10:33:50;95610.88;;;15.37;33.65
6132;BME280;3097;42.692;23.278;2023-02-18T10:36:38;95609.72;;;15.45;32.29
6132;BME280;3097;42.692;23.278;2023-02-18T10:48:12;95583.81;;;15.50;33.33
6132;BME280;3097;42.692;23.278;2023-02-18T10:50:44;95558.19;;;15.54;34.34
6132;BME280;3097;42.692;23.278;2023-02-18T10:53:16;95573.00;;;15.70;34.69
6132;BME280;3097;42.692;23.278;2023-02-18T10:55:45;95576.63;;;15.69;34.88
6132;BME280;3097;42.692;23.278;2023-02-18T10:58:42;95551.72;;;15.73;33.77
6132;BME280;3097;42.692;23.278;2023-02-18T11:01:19;95573.56;;;15.88;33.54
6132;BME280;3097;42.692;23.278;2023-02-18T11:03:47;95576.00;;;15.78;33.40
6132;BME280;3097;42.692;23.278;2023-02-18T11:08:48;95565.91;;;15.82;31.00
6132;BME280;3097;42.692;23.278;2023-02-18T11:11:23;95560.94;;;15.80;30.65
6132;BME280;3097;42.692;23.278;2023-02-18T11:13:59;95554.31;;;15.73;30.26
6132;BME280;3097;42.692;23.278;2023-02-18T11:16:38;95556.63;;;15.69;31.38
6132;BME280;3097;42.692;23.278;2023-02-18T11:19:03;95544.56;;;15.63;32.01
6132;BME280;3097;42.692;23.278;2023-02-18T11:23:55;95552.50;;;15.73;31.71
6132;BME280;3097;42.692;23.278;2023-02-18T11:26:27;95524.53;;;15.47;32.21
6132;BME280;3097;42.692;23.278;2023-02-18T11:28:59;95524.41;;;15.54;32.37
6132;BME280;3097;42.692;23.278;2023-02-18T11:31:40;95514.22;;;15.52;31.75
6132;BME280;3097;42.692;23.278;2023-02-18T11:34:14;95522.78;;;15.53;30.92
6132;BME280;3097;42.692;23.278;2023-02-18T11:36:41;95517.19;;;15.44;32.39
6132;BME280;3097;42.692;23.278;2023-02-18T11:39:19;95516.38;;;15.55;32.09
6132;BME280;3097;42.692;23.278;2023-02-18T11:41:52;95500.84;;;15.60;30.95
6132;BME280;3097;42.692;23.278;2023-02-18T11:44:22;95504.47;;;15.59;31.04
6132;BME280;3097;42.692;23.278;2023-02-18T11:49:44;95508.94;;;15.80;30.68
6132;BME280;3097;42.692;23.278;2023-02-18T11:52:34;95468.00;;;15.71;30.51
6132;BME280;3097;42.692;23.278;2023-02-18T11:55:13;95491.53;;;15.98;30.23
6132;BME280;3097;42.692;23.278;2023-02-18T11:57:54;95482.28;;;16.07;30.30
6132;BME280;3097;42.692;23.278;2023-02-18T12:00:22;95487.53;;;16.12;30.15
6132;BME280;3097;42.692;23.278;2023-02-18T12:02:50;95481.63;;;16.16;30.79
6132;BME280;3097;42.692;23.278;2023-02-18T12:05:23;95478.53;;;16.19;31.21
6132;BME280;3097;42.692;23.278;2023-02-18T12:10:26;95475.38;;;16.17;30.89
6132;BME280;3097;42.692;23.278;2023-02-18T12:13:23;95474.91;;;16.20;31.25
6132;BME280;3097;42.692;23.278;2023-02-18T12:16:13;95465.97;;;16.33;30.23
6132;BME280;3097;42.692;23.278;2023-02-18T12:35:36;95449.38;;;16.17;32.67
6132;BME280;3097;42.692;23.278;2023-02-18T12:38:41;95440.31;;;16.20;32.11
6132;BME280;3097;42.692;23.278;2023-02-18T12:43:54;95436.31;;;16.12;32.37
6132;BME280;3097;42.692;23.278;2023-02-18T12:56:58;95428.19;;;16.09;33.19
6132;BME280;3097;42.692;23.278;2023-02-18T13:13:39;95401.72;;;16.12;32.84
6132;BME280;3097;42.692;23.278;2023-02-18T13:16:12;95395.53;;;16.18;32.30
6132;BME280;3097;42.692;23.278;2023-02-18T13:18:44;95433.22;;;16.37;32.42
6132;BME280;3097;42.692;23.278;2023-02-18T13:21:15;95431.66;;;16.36;32.66
6132;BME280;3097;42.692;23.278;2023-02-18T13:24:03;95437.75;;;16.47;33.17
6132;BME280;3097;42.692;23.278;2023-02-18T13:26:31;95426.94;;;16.33;34.14
6132;BME280;3097;42.692;23.278;2023-02-18T13:29:18;95425.34;;;16.32;34.61
6132;BME280;3097;42.692;23.278;2023-02-18T13:34:31;95403.09;;;15.98;35.46
6132;BME280;3097;42.692;23.278;2023-02-18T13:37:14;95432.63;;;16.08;35.77
6132;BME280;3097;42.692;23.278;2023-02-18T13:39:47;95428.97;;;16.09;35.33
6132;BME280;3097;42.692;23.278;2023-02-18T13:47:40;95428.78;;;15.94;35.60
6132;BME280;3097;42.692;23.278;2023-02-18T13:52:56;95428.34;;;15.80;36.66
6132;BME280;3097;42.692;23.278;2023-02-18T13:58:18;95386.50;;;15.43;36.51
6132;BME280;3097;42.692;23.278;2023-02-18T14:00:50;95413.56;;;15.64;36.66
6132;BME280;3097;42.692;23.278;2023-02-18T14:03:50;95402.81;;;15.56;36.35
6132;BME280;3097;42.692;23.278;2023-02-18T14:11:41;95385.25;;;15.29;36.96
6132;BME280;3097;42.692;23.278;2023-02-18T14:22:31;95422.88;;;14.93;38.03
6132;BME280;3097;42.692;23.278;2023-02-18T14:25:38;95423.97;;;14.97;37.82
6132;BME280;3097;42.692;23.278;2023-02-18T14:28:58;95425.47;;;14.93;38.01
6132;BME280;3097;42.692;23.278;2023-02-18T14:30:57;95432.22;;;14.94;38.05
6132;BME280;3097;42.692;23.278;2023-02-18T14:33:25;95418.44;;;14.77;38.59
6132;BME280;3097;42.692;23.278;2023-02-18T14:36:15;95406.16;;;14.73;37.66
6132;BME280;3097;42.692;23.278;2023-02-18T14:39:05;95431.59;;;14.87;38.22
6132;BME280;3097;42.692;23.278;2023-02-18T14:49:56;95404.41;;;14.61;38.91
6132;BME280;3097;42.692;23.278;2023-02-18T14:53:06;95420.66;;;14.85;38.39
6132;BME280;3097;42.692;23.278;2023-02-18T14:55:36;95415.13;;;14.82;38.86
6132;BME280;3097;42.692;23.278;2023-02-18T14:58:14;95416.16;;;14.81;38.69
6132;BME280;3097;42.692;23.278;2023-02-18T15:00:43;95401.44;;;14.69;38.79
6132;BME280;3097;42.692;23.278;2023-02-18T15:03:14;95407.88;;;14.67;39.13
6132;BME280;3097;42.692;23.278;2023-02-18T15:05:41;95411.03;;;14.69;39.37
6132;BME280;3097;42.692;23.278;2023-02-18T15:08:21;95418.09;;;14.57;39.59
6132;BME280;3097;42.692;23.278;2023-02-18T15:11:05;95426.13;;;14.44;39.83
6132;BME280;3097;42.692;23.278;2023-02-18T15:13:41;95423.53;;;14.44;39.40
6132;BME280;3097;42.692;23.278;2023-02-18T15:16:17;95426.47;;;14.36;40.05
6132;BME280;3097;42.692;23.278;2023-02-18T15:18:50;95427.06;;;14.26;40.51
6132;BME280;3097;42.692;23.278;2023-02-18T15:21:36;95423.31;;;14.33;40.03
6132;BME280;3097;42.692;23.278;2023-02-18T15:24:09;95425.81;;;14.28;40.52
6132;BME280;3097;42.692;23.278;2023-02-18T15:26:44;95414.47;;;14.18;40.34
6132;BME280;3097;42.692;23.278;2023-02-18T15:29:17;95411.00;;;14.12;40.49
6132;BME280;3097;42.692;23.278;2023-02-18T15:31:47;95408.41;;;14.01;40.80
6132;BME280;3097;42.692;23.278;2023-02-18T15:34:37;95411.22;;;13.99;40.70
6132;BME280;3097;42.692;23.278;2023-02-18T15:37:09;95378.00;;;13.84;41.17
6132;BME280;3097;42.692;23.278;2023-02-18T15:39:35;95391.66;;;13.80;41.29
6132;BME280;3097;42.692;23.278;2023-02-18T15:42:17;95416.56;;;13.81;41.50
6132;BME280;3097;42.692;23.278;2023-02-18T15:44:51;95405.63;;;13.79;41.89
6132;BME280;3097;42.692;23.278;2023-02-18T15:47:20;95404.88;;;13.67;42.27
6132;BME280;3097;42.692;23.278;2023-02-18T15:49:50;95402.97;;;13.50;42.45
6132;BME280;3097;42.692;23.278;2023-02-18T15:52:26;95400.03;;;13.47;42.43
6132;BME280;3097;42.692;23.278;2023-02-18T15:54:55;95397.13;;;13.43;42.91
6132;BME280;3097;42.692;23.278;2023-02-18T15:57:25;95401.38;;;13.49;42.77
6132;BME280;3097;42.692;23.278;2023-02-18T16:00:00;95356.31;;;13.04;43.37